Time;durP1;ratioP1;P1;durP2;ratioP2;P2;SDS_P1;SDS_P2;PMS_P1;PMS_P2;Temp;Humidity;BMP_temperature;BMP_pressure;BME280_temperature;BME280_humidity;BME280_pressure;Samples;Min_cycle;Max_cycle;Signal;HPM_P1;HPM_P2
2023/06/26 00:00:42;;;;;;;6.80;6.30;;;;;;;;;;5084884;28;20180;-78
2023/06/26 00:03:08;;;;;;;6.13;5.63;;;;;;;;;;5085234;28;20223;-78
2023/06/26 00:05:34;;;;;;;6.30;5.80;;;;;;;;;;5087183;28;20234;-78
2023/06/26 00:08:00;;;;;;;6.40;5.97;;;;;;;;;;5085897;28;20233;-78
2023/06/26 00:10:27;;;;;;;6.07;5.50;;;;;;;;;;5086065;28;20309;-78
2023/06/26 00:12:54;;;;;;;6.77;6.27;;;;;;;;;;5083316;28;20626;-77
2023/06/26 00:15:20;;;;;;;5.83;5.43;;;;;;;;;;5092354;28;20530;-78
2023/06/26 00:17:46;;;;;;;6.17;5.67;;;;;;;;;;5086110;28;20283;-78
2023/06/26 00:20:12;;;;;;;6.73;6.23;;;;;;;;;;5088558;28;20208;-78
2023/06/26 00:22:40;;;;;;;6.37;5.87;;;;;;;;;;5079579;28;20233;-78
2023/06/26 00:25:07;;;;;;;6.57;5.97;;;;;;;;;;5092607;28;20234;-78
2023/06/26 00:27:33;;;;;;;6.50;6.00;;;;;;;;;;5087161;28;20203;-78
2023/06/26 00:29:59;;;;;;;6.50;6.10;;;;;;;;;;5107809;28;20187;-78
2023/06/26 00:32:25;;;;;;;6.50;6.00;;;;;;;;;;5083008;28;20205;-78
2023/06/26 00:34:52;;;;;;;6.00;5.50;;;;;;;;;;5087178;28;20181;-78
2023/06/26 00:37:18;;;;;;;6.53;6.03;;;;;;;;;;5088150;28;20492;-78
2023/06/26 00:39:44;;;;;;;6.80;6.27;;;;;;;;;;5092753;28;20691;-78
2023/06/26 00:42:10;;;;;;;6.30;5.80;;;;;;;;;;5086989;28;20283;-78
2023/06/26 00:44:36;;;;;;;7.07;6.43;;;;;;;;;;5086952;28;20180;-78
2023/06/26 00:47:02;;;;;;;6.70;6.20;;;;;;;;;;5081108;28;20706;-78
2023/06/26 00:49:28;;;;;;;6.50;6.00;;;;;;;;;;5083472;28;20184;-77
2023/06/26 00:51:55;;;;;;;7.20;6.70;;;;;;;;;;5085136;28;20187;-78
2023/06/26 00:54:22;;;;;;;6.10;5.60;;;;;;;;;;5088822;28;20203;-78
2023/06/26 00:56:48;;;;;;;6.40;5.90;;;;;;;;;;5092025;28;20230;-78
2023/06/26 00:59:14;;;;;;;6.33;5.87;;;;;;;;;;5088449;28;20195;-78
2023/06/26 01:01:40;;;;;;;6.33;5.83;;;;;;;;;;5084116;28;20218;-78
2023/06/26 01:04:06;;;;;;;6.57;6.07;;;;;;;;;;5079368;28;20250;-78
2023/06/26 01:06:36;;;;;;;6.73;6.23;;;;;;;;;;5085566;28;20291;-78
2023/06/26 01:09:03;;;;;;;6.17;5.67;;;;;;;;;;5081411;28;20192;-78
2023/06/26 01:11:29;;;;;;;6.57;5.97;;;;;;;;;;5082077;28;20187;-78
2023/06/26 01:13:57;;;;;;;6.27;5.77;;;;;;;;;;5092025;28;20191;-78
2023/06/26 01:16:24;;;;;;;6.13;5.70;;;;;;;;;;5084142;28;20183;-78
2023/06/26 01:18:50;;;;;;;6.57;6.07;;;;;;;;;;5105843;28;20848;-78
2023/06/26 01:21:16;;;;;;;6.57;6.00;;;;;;;;;;5081459;28;20227;-77
2023/06/26 01:24:04;;;;;;;6.30;5.70;;;;;;;;;;5087567;28;20191;-78
2023/06/26 01:26:31;;;;;;;6.50;6.00;;;;;;;;;;5090222;28;20209;-77
2023/06/26 01:28:59;;;;;;;6.53;6.03;;;;;;;;;;5086155;28;20182;-78
2023/06/26 01:31:25;;;;;;;6.53;6.03;;;;;;;;;;5077837;28;20519;-78
2023/06/26 01:33:51;;;;;;;6.80;6.20;;;;;;;;;;5088521;28;20646;-78
2023/06/26 01:36:17;;;;;;;6.20;5.70;;;;;;;;;;5079099;28;20244;-77
2023/06/26 01:38:43;;;;;;;6.67;6.13;;;;;;;;;;5076151;28;20214;-78
2023/06/26 01:41:09;;;;;;;6.23;5.73;;;;;;;;;;5084021;28;20641;-78
2023/06/26 01:43:38;;;;;;;6.57;6.07;;;;;;;;;;5088434;28;20617;-77
2023/06/26 01:46:31;;;;;;;6.50;6.00;;;;;;;;;;5075461;28;20211;-78
2023/06/26 01:49:16;;;;;;;6.93;6.30;;;;;;;;;;5083719;28;20196;-78
2023/06/26 01:51:43;;;;;;;7.27;6.67;;;;;;;;;;5083761;28;20570;-78
2023/06/26 01:54:14;;;;;;;6.47;5.97;;;;;;;;;;5088313;28;20776;-78
2023/06/26 01:56:40;;;;;;;7.13;6.43;;;;;;;;;;5081710;28;20186;-77
2023/06/26 01:59:08;;;;;;;6.77;6.20;;;;;;;;;;5082156;28;20221;-78
2023/06/26 02:01:34;;;;;;;6.67;6.17;;;;;;;;;;5079747;28;20187;-78
2023/06/26 02:04:00;;;;;;;5.67;5.27;;;;;;;;;;5084335;28;20254;-78
2023/06/26 02:06:26;;;;;;;6.10;5.60;;;;;;;;;;5083533;28;20300;-78
2023/06/26 02:08:53;;;;;;;6.80;6.30;;;;;;;;;;5080927;28;20653;-78
2023/06/26 02:11:19;;;;;;;6.70;6.17;;;;;;;;;;5080872;28;20180;-78
2023/06/26 02:13:53;;;;;;;6.67;6.17;;;;;;;;;;5086960;28;20199;-79
2023/06/26 02:16:19;;;;;;;6.70;6.10;;;;;;;;;;5082923;28;20176;-79
2023/06/26 02:18:46;;;;;;;7.10;6.40;;;;;;;;;;5088184;28;20308;-79
2023/06/26 02:21:12;;;;;;;6.13;5.63;;;;;;;;;;5081530;28;20183;-78
2023/06/26 02:23:38;;;;;;;6.77;6.27;;;;;;;;;;5078676;28;20191;-78
2023/06/26 02:26:04;;;;;;;6.83;6.23;;;;;;;;;;5083235;28;20209;-79
2023/06/26 02:28:31;;;;;;;6.30;5.80;;;;;;;;;;5088634;28;20181;-80
2023/06/26 02:30:57;;;;;;;6.93;6.33;;;;;;;;;;5084907;28;20493;-81
2023/06/26 02:33:23;;;;;;;6.47;5.97;;;;;;;;;;5089845;28;20185;-80
2023/06/26 02:35:50;;;;;;;7.10;6.50;;;;;;;;;;5089164;28;20662;-81
2023/06/26 02:38:16;;;;;;;6.40;5.90;;;;;;;;;;5089034;28;20239;-81
2023/06/26 02:40:42;;;;;;;8.80;6.37;;;;;;;;;;5087863;28;20197;-80
2023/06/26 02:43:08;;;;;;;6.20;5.60;;;;;;;;;;5082134;28;20184;-80
2023/06/26 02:45:34;;;;;;;6.33;5.83;;;;;;;;;;5078757;28;20551;-80
2023/06/26 02:48:00;;;;;;;7.07;6.47;;;;;;;;;;5072180;28;20198;-81
2023/06/26 02:50:26;;;;;;;6.67;6.17;;;;;;;;;;5074328;28;20586;-81
2023/06/26 02:52:52;;;;;;;6.90;6.30;;;;;;;;;;5081451;28;20200;-80
2023/06/26 02:55:20;;;;;;;7.00;6.40;;;;;;;;;;5080284;28;20239;-80
2023/06/26 02:57:46;;;;;;;6.63;6.13;;;;;;;;;;5087145;28;20186;-82
2023/06/26 03:00:12;;;;;;;6.60;6.10;;;;;;;;;;5089828;28;20250;-80
2023/06/26 03:02:38;;;;;;;6.50;6.00;;;;;;;;;;5090446;28;20214;-81
2023/06/26 03:05:05;;;;;;;6.23;5.73;;;;;;;;;;5084040;28;20224;-81
2023/06/26 03:07:31;;;;;;;6.70;6.07;;;;;;;;;;5076537;28;20574;-81
2023/06/26 03:09:57;;;;;;;7.30;6.70;;;;;;;;;;5078578;28;20187;-80
2023/06/26 03:12:24;;;;;;;6.53;6.03;;;;;;;;;;5072376;28;20606;-81
2023/06/26 03:14:50;;;;;;;7.30;6.70;;;;;;;;;;5075993;28;20187;-81
2023/06/26 03:17:16;;;;;;;6.63;6.13;;;;;;;;;;5078280;28;20666;-81
2023/06/26 03:19:42;;;;;;;6.83;6.23;;;;;;;;;;5080292;28;20185;-81
2023/06/26 03:22:08;;;;;;;6.93;6.43;;;;;;;;;;5081008;28;20207;-81
2023/06/26 03:24:34;;;;;;;6.97;6.40;;;;;;;;;;5080689;28;20177;-81
2023/06/26 03:27:00;;;;;;;7.03;6.43;;;;;;;;;;5075546;28;20202;-82
2023/06/26 03:29:26;;;;;;;7.00;6.40;;;;;;;;;;5084062;28;20207;-82
2023/06/26 03:31:52;;;;;;;8.90;8.20;;;;;;;;;;5083269;28;20189;-82
2023/06/26 03:34:18;;;;;;;6.73;6.13;;;;;;;;;;5081540;28;20175;-82
2023/06/26 03:36:44;;;;;;;6.83;6.23;;;;;;;;;;5091277;28;20642;-82
2023/06/26 03:39:10;;;;;;;6.40;5.80;;;;;;;;;;5092152;28;20213;-83
2023/06/26 03:41:36;;;;;;;8.70;6.50;;;;;;;;;;5087073;28;20207;-82
2023/06/26 03:44:03;;;;;;;7.63;6.90;;;;;;;;;;5079861;28;20178;-83
2023/06/26 03:46:29;;;;;;;7.60;5.93;;;;;;;;;;5089299;28;20205;-82
2023/06/26 03:48:58;;;;;;;6.87;6.27;;;;;;;;;;5086950;28;20177;-81
2023/06/26 03:51:24;;;;;;;6.73;6.17;;;;;;;;;;5091485;28;20226;-82
2023/06/26 03:53:50;;;;;;;6.93;6.23;;;;;;;;;;5084152;28;20234;-82
2023/06/26 03:56:16;;;;;;;7.63;6.47;;;;;;;;;;5090303;28;20198;-82
2023/06/26 03:58:42;;;;;;;7.33;6.33;;;;;;;;;;5090661;28;20277;-82
2023/06/26 04:01:08;;;;;;;7.97;7.17;;;;;;;;;;5084271;28;20207;-82
2023/06/26 04:03:34;;;;;;;7.10;6.50;;;;;;;;;;5087107;28;20712;-82
2023/06/26 04:06:00;;;;;;;6.70;6.10;;;;;;;;;;5087517;28;20203;-82
2023/06/26 04:08:26;;;;;;;6.33;5.70;;;;;;;;;;5091784;28;20658;-82
2023/06/26 04:10:53;;;;;;;6.77;6.10;;;;;;;;;;5088938;28;20291;-82
2023/06/26 04:13:19;;;;;;;6.30;5.70;;;;;;;;;;5081102;28;20198;-82
2023/06/26 04:15:45;;;;;;;6.90;6.30;;;;;;;;;;5090544;28;20182;-82
2023/06/26 04:18:12;;;;;;;6.07;5.57;;;;;;;;;;5085865;28;20696;-82
2023/06/26 04:20:44;;;;;;;8.37;5.50;;;;;;;;;;5086384;28;20251;-82
2023/06/26 04:23:11;;;;;;;7.43;6.83;;;;;;;;;;5087992;28;20263;-81
2023/06/26 04:25:37;;;;;;;6.70;6.10;;;;;;;;;;5087513;28;20206;-82
2023/06/26 04:28:03;;;;;;;6.10;5.60;;;;;;;;;;5086979;28;20181;-81
2023/06/26 04:30:29;;;;;;;6.87;6.27;;;;;;;;;;5080825;28;20634;-82
2023/06/26 04:32:58;;;;;;;7.07;6.40;;;;;;;;;;5093304;28;20201;-82
2023/06/26 04:35:24;;;;;;;6.77;6.10;;;;;;;;;;5089341;28;20269;-82
2023/06/26 04:37:50;;;;;;;6.50;5.80;;;;;;;;;;5082190;28;20713;-81
2023/06/26 04:40:16;;;;;;;6.37;5.87;;;;;;;;;;5091370;28;20621;-82
2023/06/26 04:42:42;;;;;;;7.30;6.37;;;;;;;;;;5087718;28;20199;-82
2023/06/26 04:45:09;;;;;;;6.20;5.67;;;;;;;;;;5088455;28;20196;-82
2023/06/26 04:47:35;;;;;;;6.40;5.87;;;;;;;;;;5085036;28;20204;-82
2023/06/26 04:50:01;;;;;;;6.33;5.77;;;;;;;;;;5090904;28;20208;-82
2023/06/26 04:52:27;;;;;;;6.57;5.97;;;;;;;;;;5078127;28;20184;-82
2023/06/26 04:54:53;;;;;;;6.70;6.10;;;;;;;;;;5076189;28;20274;-82
2023/06/26 04:57:19;;;;;;;7.57;6.70;;;;;;;;;;5087230;28;20180;-82
2023/06/26 04:59:45;;;;;;;6.23;5.63;;;;;;;;;;5093160;28;20184;-81
2023/06/26 05:02:14;;;;;;;7.80;7.00;;;;;;;;;;5088320;28;20188;-82
2023/06/26 05:04:42;;;;;;;7.00;6.37;;;;;;;;;;5089653;28;20294;-82
2023/06/26 05:07:08;;;;;;;6.63;6.03;;;;;;;;;;5079943;28;20627;-78
2023/06/26 05:09:34;;;;;;;6.57;6.00;;;;;;;;;;5094056;28;20190;-79
2023/06/26 05:12:00;;;;;;;7.30;6.67;;;;;;;;;;5094979;28;20184;-78
2023/06/26 05:14:26;;;;;;;7.03;6.43;;;;;;;;;;5088881;28;20212;-78
2023/06/26 05:16:52;;;;;;;6.47;5.87;;;;;;;;;;5089326;28;20177;-78
2023/06/26 05:19:18;;;;;;;6.93;5.50;;;;;;;;;;5093255;28;20196;-78
2023/06/26 05:21:45;;;;;;;10.67;5.67;;;;;;;;;;5084872;28;20200;-79
2023/06/26 05:24:13;;;;;;;5.73;5.23;;;;;;;;;;5089431;28;20200;-78
2023/06/26 05:26:40;;;;;;;6.07;5.57;;;;;;;;;;5091747;28;20200;-77
2023/06/26 05:29:09;;;;;;;6.50;5.87;;;;;;;;;;5087828;28;20205;-79
2023/06/26 05:31:36;;;;;;;6.93;5.77;;;;;;;;;;5079553;28;20168;-78
2023/06/26 05:34:03;;;;;;;8.50;5.87;;;;;;;;;;5079994;28;20661;-78
2023/06/26 05:36:31;;;;;;;5.87;5.37;;;;;;;;;;5087525;28;20192;-78
2023/06/26 05:38:57;;;;;;;5.87;5.37;;;;;;;;;;5088957;28;20180;-78
2023/06/26 05:41:23;;;;;;;5.70;5.20;;;;;;;;;;5085947;28;20620;-78
2023/06/26 05:43:49;;;;;;;5.50;5.00;;;;;;;;;;5088051;28;20181;-78
2023/06/26 05:46:15;;;;;;;7.27;5.87;;;;;;;;;;5089462;28;20210;-78
2023/06/26 05:48:41;;;;;;;6.73;6.00;;;;;;;;;;5084723;28;20180;-77
2023/06/26 05:51:08;;;;;;;6.27;5.47;;;;;;;;;;5080659;28;20275;-78
2023/06/26 05:53:34;;;;;;;5.57;5.07;;;;;;;;;;5090382;28;20204;-78
2023/06/26 05:56:00;;;;;;;6.93;5.27;;;;;;;;;;5083951;28;20544;-77
2023/06/26 05:58:30;;;;;;;5.23;4.73;;;;;;;;;;5087655;28;20196;-78
2023/06/26 06:00:56;;;;;;;5.90;5.47;;;;;;;;;;5086198;28;20578;-78
2023/06/26 06:03:24;;;;;;;5.77;5.23;;;;;;;;;;5082044;28;20238;-78
2023/06/26 06:05:50;;;;;;;6.63;5.17;;;;;;;;;;5080443;28;20187;-77
2023/06/26 06:08:16;;;;;;;6.40;5.37;;;;;;;;;;5085873;28;20187;-78
2023/06/26 06:10:42;;;;;;;6.83;5.40;;;;;;;;;;5078193;28;20179;-78
2023/06/26 06:13:08;;;;;;;5.47;5.00;;;;;;;;;;5083722;28;20190;-77
2023/06/26 06:15:34;;;;;;;4.90;4.50;;;;;;;;;;5083481;28;20179;-77
2023/06/26 06:18:00;;;;;;;5.90;5.30;;;;;;;;;;5084590;28;20269;-76
2023/06/26 06:20:26;;;;;;;5.00;4.60;;;;;;;;;;5085593;28;20197;-77
2023/06/26 06:22:52;;;;;;;8.27;5.07;;;;;;;;;;5091693;28;20188;-77
2023/06/26 06:25:18;;;;;;;7.33;5.17;;;;;;;;;;5089908;28;20193;-76
2023/06/26 06:27:45;;;;;;;5.83;4.50;;;;;;;;;;5090161;28;20200;-76
2023/06/26 06:30:11;;;;;;;9.73;5.47;;;;;;;;;;5078388;28;20187;-76
2023/06/26 06:32:37;;;;;;;8.00;5.10;;;;;;;;;;5081512;28;20192;-76
2023/06/26 06:35:09;;;;;;;8.03;5.53;;;;;;;;;;5075701;28;20171;-76
2023/06/26 06:37:35;;;;;;;6.00;5.13;;;;;;;;;;5077608;28;20730;-76
2023/06/26 06:40:01;;;;;;;6.67;5.00;;;;;;;;;;5082522;28;20191;-76
2023/06/26 06:42:27;;;;;;;6.73;4.97;;;;;;;;;;5082212;28;20203;-76
2023/06/26 06:44:53;;;;;;;7.27;5.03;;;;;;;;;;5078918;28;20632;-77
2023/06/26 06:47:19;;;;;;;6.23;5.07;;;;;;;;;;5083241;28;20286;-77
2023/06/26 06:49:45;;;;;;;6.10;4.90;;;;;;;;;;5089728;28;20278;-77
2023/06/26 06:52:11;;;;;;;8.83;5.67;;;;;;;;;;5082326;28;20273;-77
2023/06/26 06:54:58;;;;;;;6.13;5.33;;;;;;;;;;5086444;28;20676;-77
2023/06/26 06:57:25;;;;;;;6.27;5.43;;;;;;;;;;5083515;28;20228;-77
2023/06/26 06:59:51;;;;;;;6.97;5.67;;;;;;;;;;5085850;28;20190;-76
2023/06/26 07:02:18;;;;;;;4.87;4.30;;;;;;;;;;5084412;28;20190;-77
2023/06/26 07:04:44;;;;;;;6.23;4.60;;;;;;;;;;5085737;28;20242;-77
2023/06/26 07:07:10;;;;;;;6.93;5.77;;;;;;;;;;5081616;28;20446;-76
2023/06/26 07:09:37;;;;;;;6.33;4.77;;;;;;;;;;5081262;28;20615;-76
2023/06/26 07:12:03;;;;;;;7.67;5.83;;;;;;;;;;5092655;28;20187;-77
2023/06/26 07:14:29;;;;;;;5.70;4.40;;;;;;;;;;5092779;28;20642;-76
2023/06/26 07:16:55;;;;;;;5.87;4.33;;;;;;;;;;5087096;28;20268;-77
2023/06/26 07:19:21;;;;;;;7.53;4.67;;;;;;;;;;5089990;28;20617;-77
2023/06/26 07:21:47;;;;;;;6.90;5.03;;;;;;;;;;5087102;28;20279;-77
2023/06/26 07:24:13;;;;;;;6.70;4.97;;;;;;;;;;5091604;28;20351;-77
2023/06/26 07:26:39;;;;;;;5.37;4.40;;;;;;;;;;5086663;28;20688;-76
2023/06/26 07:29:05;;;;;;;5.83;4.50;;;;;;;;;;5089475;28;20365;-77
2023/06/26 07:31:31;;;;;;;6.07;4.87;;;;;;;;;;5086503;28;20205;-77
2023/06/26 07:33:57;;;;;;;6.57;4.40;;;;;;;;;;5091848;28;20283;-76
2023/06/26 07:36:23;;;;;;;5.80;4.40;;;;;;;;;;5088699;28;20424;-76
2023/06/26 07:38:49;;;;;;;6.83;5.00;;;;;;;;;;5085181;28;20632;-79
2023/06/26 07:41:15;;;;;;;6.60;4.97;;;;;;;;;;5091632;28;20197;-78
2023/06/26 07:43:41;;;;;;;6.20;5.43;;;;;;;;;;5089238;28;20219;-76
2023/06/26 07:46:07;;;;;;;5.47;4.70;;;;;;;;;;5085110;28;20204;-78
2023/06/26 07:48:33;;;;;;;6.57;4.73;;;;;;;;;;5080581;28;20185;-78
2023/06/26 07:50:59;;;;;;;5.17;4.67;;;;;;;;;;5081556;28;20180;-77
2023/06/26 07:53:25;;;;;;;6.00;5.13;;;;;;;;;;5082373;28;20227;-78
2023/06/26 07:55:51;;;;;;;6.93;4.97;;;;;;;;;;5087975;28;20527;-77
2023/06/26 07:58:18;;;;;;;5.00;4.27;;;;;;;;;;5087004;28;20627;-77
2023/06/26 08:00:44;;;;;;;5.93;4.73;;;;;;;;;;5093418;28;20184;-77
2023/06/26 08:03:10;;;;;;;7.37;5.30;;;;;;;;;;5085618;28;20220;-77
2023/06/26 08:05:36;;;;;;;7.73;5.17;;;;;;;;;;5091250;28;20663;-77
2023/06/26 08:08:03;;;;;;;5.00;4.57;;;;;;;;;;5087003;28;20330;-78
2023/06/26 08:10:30;;;;;;;6.33;5.07;;;;;;;;;;5091133;28;20211;-80
2023/06/26 08:12:56;;;;;;;7.33;4.30;;;;;;;;;;5086973;28;20180;-80
2023/06/26 08:15:22;;;;;;;5.33;4.80;;;;;;;;;;5081107;28;20180;-80
2023/06/26 08:17:50;;;;;;;5.47;4.50;;;;;;;;;;5085108;28;20177;-80
2023/06/26 08:20:16;;;;;;;8.70;4.97;;;;;;;;;;5089085;28;20172;-83
2023/06/26 08:22:43;;;;;;;8.07;5.23;;;;;;;;;;5101389;28;20180;-80
2023/06/26 08:25:09;;;;;;;7.00;4.53;;;;;;;;;;5079032;28;20199;-86
2023/06/26 08:27:35;;;;;;;8.40;5.13;;;;;;;;;;5089039;28;20205;-80
2023/06/26 08:30:01;;;;;;;8.63;5.00;;;;;;;;;;5084387;28;20864;-80
2023/06/26 08:32:27;;;;;;;6.00;4.27;;;;;;;;;;5085386;28;20647;-82
2023/06/26 08:34:53;;;;;;;6.77;4.83;;;;;;;;;;5093474;28;20287;-81
2023/06/26 08:37:19;;;;;;;7.07;4.67;;;;;;;;;;5090680;28;20197;-82
2023/06/26 08:39:45;;;;;;;7.50;4.47;;;;;;;;;;5078457;28;20197;-80
2023/06/26 08:42:11;;;;;;;7.77;4.33;;;;;;;;;;5086741;28;20184;-80
2023/06/26 08:44:37;;;;;;;7.80;4.57;;;;;;;;;;5082964;28;20538;-83
2023/06/26 08:47:04;;;;;;;9.93;4.73;;;;;;;;;;5087078;28;20207;-82
2023/06/26 08:49:32;;;;;;;7.23;3.97;;;;;;;;;;5089712;28;20196;-82
2023/06/26 08:52:17;;;;;;;6.37;4.40;;;;;;;;;;5103061;28;20185;-82
2023/06/26 08:54:47;;;;;;;8.27;4.40;;;;;;;;;;5082754;28;20214;-82
2023/06/26 08:57:15;;;;;;;7.47;4.63;;;;;;;;;;5082026;28;20173;-82
2023/06/26 08:59:41;;;;;;;9.37;4.03;;;;;;;;;;5087624;28;20199;-80
2023/06/26 09:02:07;;;;;;;7.57;4.87;;;;;;;;;;5087412;28;20186;-84
2023/06/26 09:04:33;;;;;;;10.53;5.10;;;;;;;;;;5087912;28;20345;-81
2023/06/26 09:06:59;;;;;;;7.30;5.17;;;;;;;;;;5082893;28;20264;-82
2023/06/26 09:09:25;;;;;;;4.50;4.03;;;;;;;;;;5089750;28;20219;-81
2023/06/26 09:11:51;;;;;;;6.53;3.90;;;;;;;;;;5092797;28;20180;-82
2023/06/26 09:14:17;;;;;;;9.27;4.80;;;;;;;;;;5087353;28;20180;-83
2023/06/26 09:16:43;;;;;;;6.40;3.87;;;;;;;;;;5089597;28;20188;-81
2023/06/26 09:19:11;;;;;;;6.37;3.73;;;;;;;;;;5088992;28;20237;-81
2023/06/26 09:21:38;;;;;;;7.40;4.00;;;;;;;;;;5091654;28;20201;-81
2023/06/26 09:24:04;;;;;;;5.40;4.10;;;;;;;;;;5087504;28;20302;-83
2023/06/26 09:26:30;;;;;;;8.03;3.77;;;;;;;;;;5083646;28;20240;-81
2023/06/26 09:28:57;;;;;;;7.77;4.70;;;;;;;;;;5100553;28;20324;-81
2023/06/26 09:31:24;;;;;;;9.83;4.63;;;;;;;;;;5089817;28;20188;-78
2023/06/26 09:33:56;;;;;;;6.70;4.57;;;;;;;;;;5086852;28;20263;-78
2023/06/26 09:36:23;;;;;;;5.10;4.07;;;;;;;;;;5087212;28;20181;-78
2023/06/26 09:38:49;;;;;;;6.67;3.83;;;;;;;;;;5091432;28;20185;-80
2023/06/26 09:41:18;;;;;;;5.70;4.30;;;;;;;;;;5091271;28;20603;-81
2023/06/26 09:43:51;;;;;;;9.03;4.20;;;;;;;;;;5086631;28;20541;-82
2023/06/26 09:46:18;;;;;;;8.40;3.70;;;;;;;;;;5079329;28;20514;-82
2023/06/26 09:48:44;;;;;;;5.37;3.90;;;;;;;;;;5085493;28;20269;-81
2023/06/26 09:51:11;;;;;;;5.40;3.83;;;;;;;;;;5086649;28;20184;-81
2023/06/26 09:53:37;;;;;;;5.73;4.43;;;;;;;;;;5080661;28;20349;-82
2023/06/26 09:56:07;;;;;;;7.50;4.40;;;;;;;;;;5091489;28;20277;-83
2023/06/26 09:58:33;;;;;;;5.57;3.87;;;;;;;;;;5089677;28;20615;-80
2023/06/26 10:00:59;;;;;;;6.33;4.40;;;;;;;;;;5084069;28;20294;-81
2023/06/26 10:03:25;;;;;;;6.83;3.40;;;;;;;;;;5081459;28;20219;-80
2023/06/26 10:05:51;;;;;;;6.73;3.53;;;;;;;;;;5080508;28;20206;-81
2023/06/26 10:08:17;;;;;;;6.23;3.63;;;;;;;;;;5082359;28;20198;-80
2023/06/26 10:10:44;;;;;;;5.63;3.80;;;;;;;;;;5085152;28;20187;-81
2023/06/26 10:13:21;;;;;;;6.23;4.00;;;;;;;;;;5080443;28;20909;-79
2023/06/26 10:15:48;;;;;;;5.70;3.80;;;;;;;;;;5082789;28;20176;-82
2023/06/26 10:18:15;;;;;;;5.43;3.93;;;;;;;;;;5085766;28;20723;-81
2023/06/26 10:20:42;;;;;;;4.17;3.77;;;;;;;;;;5087458;28;20222;-81
2023/06/26 10:23:09;;;;;;;4.73;3.50;;;;;;;;;;5086717;28;20187;-79
2023/06/26 10:25:35;;;;;;;6.10;3.97;;;;;;;;;;5086648;28;20179;-82
2023/06/26 10:28:03;;;;;;;4.83;3.60;;;;;;;;;;5089590;28;20243;-81
2023/06/26 10:30:32;;;;;;;4.27;3.40;;;;;;;;;;5091293;28;20255;-83
2023/06/26 10:32:58;;;;;;;4.30;3.43;;;;;;;;;;5088826;28;20170;-81
2023/06/26 10:35:25;;;;;;;5.87;3.40;;;;;;;;;;5089019;28;20262;-82
2023/06/26 10:37:51;;;;;;;4.40;3.97;;;;;;;;;;5087919;28;20214;-84
2023/06/26 10:40:40;;;;;;;5.60;3.30;;;;;;;;;;5084822;28;20182;-81
2023/06/26 10:43:09;;;;;;;4.97;3.43;;;;;;;;;;5087182;28;20246;-82
2023/06/26 10:45:36;;;;;;;4.30;3.40;;;;;;;;;;5079248;28;20180;-81
2023/06/26 10:48:04;;;;;;;6.50;3.63;;;;;;;;;;5090010;28;20210;-82
2023/06/26 10:50:30;;;;;;;3.60;3.20;;;;;;;;;;5079417;28;20535;-80
2023/06/26 10:53:21;;;;;;;4.33;3.33;;;;;;;;;;5079490;28;20514;-84
2023/06/26 10:55:49;;;;;;;8.07;3.87;;;;;;;;;;5094929;28;20182;-81
2023/06/26 10:58:47;;;;;;;4.13;2.97;;;;;;;;;;5086746;28;20544;-81
2023/06/26 11:01:26;;;;;;;5.93;3.20;;;;;;;;;;5033752;28;20213;-81
2023/06/26 11:03:58;;;;;;;5.83;3.03;;;;;;;;;;5087883;28;20757;-82
2023/06/26 11:06:24;;;;;;;3.27;2.90;;;;;;;;;;5081395;28;20224;-81
2023/06/26 11:08:53;;;;;;;3.50;3.20;;;;;;;;;;5092049;28;20179;-84
2023/06/26 11:11:20;;;;;;;5.93;3.20;;;;;;;;;;5087812;28;20188;-81
2023/06/26 11:13:46;;;;;;;4.47;2.80;;;;;;;;;;5087540;28;20218;-81
2023/06/26 11:16:14;;;;;;;4.10;2.80;;;;;;;;;;5083911;28;20188;-81
2023/06/26 11:18:40;;;;;;;4.30;2.80;;;;;;;;;;5087203;28;20188;-79
2023/06/26 11:21:06;;;;;;;3.57;2.33;;;;;;;;;;5085873;28;20201;-80
2023/06/26 11:23:33;;;;;;;3.93;2.70;;;;;;;;;;5087907;28;20204;-80
2023/06/26 11:26:13;;;;;;;2.93;2.73;;;;;;;;;;5090158;28;20186;-80
2023/06/26 11:28:39;;;;;;;3.67;2.50;;;;;;;;;;5089758;28;20179;-81
2023/06/26 11:31:05;;;;;;;2.63;2.43;;;;;;;;;;5094395;28;20206;-81
2023/06/26 11:33:31;;;;;;;4.90;2.50;;;;;;;;;;5097392;28;20646;-80
2023/06/26 11:36:08;;;;;;;2.97;2.13;;;;;;;;;;5090270;28;20656;-79
2023/06/26 11:38:38;;;;;;;4.90;2.63;;;;;;;;;;5089358;28;20189;-80
2023/06/26 11:41:08;;;;;;;6.20;2.80;;;;;;;;;;5086147;28;21033;-80
2023/06/26 11:43:34;;;;;;;4.10;2.60;;;;;;;;;;5088869;28;20216;-79
2023/06/26 11:46:00;;;;;;;4.57;2.40;;;;;;;;;;5093413;28;20183;-80
2023/06/26 11:48:26;;;;;;;3.37;2.53;;;;;;;;;;5092643;28;20198;-80
2023/06/26 11:50:52;;;;;;;3.60;2.20;;;;;;;;;;5087668;28;20277;-79
2023/06/26 11:53:18;;;;;;;2.50;2.30;;;;;;;;;;5094979;28;20181;-76
2023/06/26 11:55:44;;;;;;;3.90;2.43;;;;;;;;;;5087156;28;20278;-79
2023/06/26 11:58:10;;;;;;;6.07;3.13;;;;;;;;;;5094166;28;20189;-78
2023/06/26 12:00:41;;;;;;;4.27;2.47;;;;;;;;;;5091403;28;20297;-80
2023/06/26 12:03:07;;;;;;;2.57;2.37;;;;;;;;;;5092367;28;20230;-79
2023/06/26 12:05:34;;;;;;;5.10;2.30;;;;;;;;;;5091782;28;20270;-79
2023/06/26 12:08:01;;;;;;;3.17;1.87;;;;;;;;;;5090711;28;20669;-78
2023/06/26 12:10:27;;;;;;;4.77;2.30;;;;;;;;;;5091330;28;20179;-80
2023/06/26 12:12:56;;;;;;;2.70;2.20;;;;;;;;;;5094053;28;20589;-82
2023/06/26 12:15:22;;;;;;;2.50;1.90;;;;;;;;;;5092856;28;20193;-80
2023/06/26 12:17:48;;;;;;;2.23;2.13;;;;;;;;;;5088813;28;20233;-79
2023/06/26 12:20:25;;;;;;;4.77;2.43;;;;;;;;;;5083796;28;20185;-80
2023/06/26 12:22:51;;;;;;;6.27;2.40;;;;;;;;;;5104490;28;20398;-79
2023/06/26 12:25:24;;;;;;;2.10;1.90;;;;;;;;;;5095900;28;20632;-79
2023/06/26 12:27:50;;;;;;;2.20;2.00;;;;;;;;;;5091102;28;20230;-79
2023/06/26 12:30:16;;;;;;;2.20;1.80;;;;;;;;;;5085646;28;20271;-79
2023/06/26 12:32:49;;;;;;;2.13;2.00;;;;;;;;;;5089956;28;20180;-80
2023/06/26 12:35:15;;;;;;;2.60;1.97;;;;;;;;;;5089215;28;20176;-81
2023/06/26 12:37:44;;;;;;;1.87;1.70;;;;;;;;;;5090441;28;20253;-79
2023/06/26 12:40:23;;;;;;;2.43;2.10;;;;;;;;;;5091647;28;20206;-80
2023/06/26 12:42:49;;;;;;;2.10;1.80;;;;;;;;;;5086911;28;20171;-78
2023/06/26 12:45:15;;;;;;;3.45;1.90;;;;;;;;;;5092882;28;20534;-79
2023/06/26 12:47:42;;;;;;;2.63;2.43;;;;;;;;;;5088466;28;20209;-80
2023/06/26 12:50:08;;;;;;;3.30;2.13;;;;;;;;;;5091539;28;20179;-79
2023/06/26 12:52:34;;;;;;;4.87;2.93;;;;;;;;;;5093547;28;20521;-80
2023/06/26 12:55:00;;;;;;;4.30;2.38;;;;;;;;;;5083620;28;20516;-77
2023/06/26 12:57:26;;;;;;;2.22;2.10;;;;;;;;;;5091494;28;20183;-77
2023/06/26 12:59:52;;;;;;;4.13;2.10;;;;;;;;;;5090007;28;20198;-76
2023/06/26 13:02:19;;;;;;;5.10;2.30;;;;;;;;;;5088100;28;20189;-78
2023/06/26 13:04:45;;;;;;;2.37;2.17;;;;;;;;;;5087246;28;20242;-79
2023/06/26 13:07:11;;;;;;;2.35;2.13;;;;;;;;;;5082697;28;20436;-77
2023/06/26 13:09:38;;;;;;;2.67;2.47;;;;;;;;;;5083532;28;20254;-78
2023/06/26 13:12:04;;;;;;;4.20;1.90;;;;;;;;;;5087558;28;20558;-78
2023/06/26 13:14:31;;;;;;;8.87;2.13;;;;;;;;;;5089204;28;20190;-78
2023/06/26 13:16:57;;;;;;;4.77;2.03;;;;;;;;;;5084391;28;20196;-79
2023/06/26 13:19:23;;;;;;;4.83;2.33;;;;;;;;;;5091132;28;20797;-79
2023/06/26 13:21:49;;;;;;;3.10;2.80;;;;;;;;;;5091491;28;20181;-82
2023/06/26 13:24:15;;;;;;;7.10;2.40;;;;;;;;;;5087352;28;20188;-82
2023/06/26 13:26:41;;;;;;;2.57;1.93;;;;;;;;;;5083524;28;20205;-81
2023/06/26 13:29:07;;;;;;;3.00;2.30;;;;;;;;;;5095848;28;20183;-82
2023/06/26 13:31:33;;;;;;;3.07;2.60;;;;;;;;;;5086831;28;20173;-83
2023/06/26 13:34:00;;;;;;;5.47;2.20;;;;;;;;;;5092752;28;20189;-82
2023/06/26 13:36:26;;;;;;;3.83;2.30;;;;;;;;;;5086321;28;20212;-81
2023/06/26 13:38:55;;;;;;;2.63;2.27;;;;;;;;;;5086384;28;20233;-81
2023/06/26 13:41:25;;;;;;;4.57;2.37;;;;;;;;;;5091669;28;20252;-83
2023/06/26 13:43:51;;;;;;;3.30;2.30;;;;;;;;;;5086196;28;20197;-82
2023/06/26 13:46:17;;;;;;;5.13;2.17;;;;;;;;;;5088560;28;20244;-83
2023/06/26 13:48:44;;;;;;;4.77;1.90;;;;;;;;;;5090291;28;20185;-84
2023/06/26 13:51:10;;;;;;;2.73;1.80;;;;;;;;;;5085464;28;20181;-82
2023/06/26 13:53:36;;;;;;;2.37;1.87;;;;;;;;;;5090353;28;20288;-80
2023/06/26 13:56:02;;;;;;;3.87;2.47;;;;;;;;;;5089897;28;20778;-82
2023/06/26 13:58:29;;;;;;;2.43;2.20;;;;;;;;;;5086421;28;20314;-82
2023/06/26 14:00:55;;;;;;;4.03;2.20;;;;;;;;;;5080573;28;20228;-82
2023/06/26 14:03:21;;;;;;;2.73;2.47;;;;;;;;;;5081888;28;20214;-76
2023/06/26 14:05:48;;;;;;;2.30;2.10;;;;;;;;;;5087386;28;20651;-83
2023/06/26 14:08:14;;;;;;;2.33;1.90;;;;;;;;;;5087471;28;20652;-81
2023/06/26 14:10:40;;;;;;;2.50;2.10;;;;;;;;;;5085499;28;20182;-80
2023/06/26 14:13:06;;;;;;;2.67;2.13;;;;;;;;;;5080023;28;20187;-85
2023/06/26 14:15:33;;;;;;;3.57;1.83;;;;;;;;;;5086620;28;20189;-78
2023/06/26 14:18:02;;;;;;;2.57;2.33;;;;;;;;;;5083849;28;20184;-78
2023/06/26 14:20:32;;;;;;;2.50;2.30;;;;;;;;;;5107724;28;20215;-78
2023/06/26 14:22:58;;;;;;;2.47;2.23;;;;;;;;;;5084379;28;20202;-80
2023/06/26 14:25:24;;;;;;;2.60;2.20;;;;;;;;;;5090482;28;20191;-79
2023/06/26 14:27:50;;;;;;;2.50;1.80;;;;;;;;;;5091841;28;20197;-81
2023/06/26 14:30:16;;;;;;;3.80;2.07;;;;;;;;;;5091301;28;20208;-78
2023/06/26 14:32:42;;;;;;;4.03;2.20;;;;;;;;;;5085724;28;20183;-79
2023/06/26 14:35:11;;;;;;;4.57;2.07;;;;;;;;;;5087995;28;20206;-78
2023/06/26 14:37:39;;;;;;;2.13;1.83;;;;;;;;;;5080553;28;20278;-79
2023/06/26 14:40:05;;;;;;;4.07;2.10;;;;;;;;;;5089870;28;20191;-78
2023/06/26 14:42:31;;;;;;;3.27;2.13;;;;;;;;;;5088024;28;20623;-77